sensor_id;sensor_type;location;lat;lon;timestamp;P1;durP1;ratioP1;P2;durP2;ratioP2
58864;SDS011;45702;52.982;6.658;2022-07-17T00:02:06;9.63;;;4.00;;
58864;SDS011;45702;52.982;6.658;2022-07-17T00:04:31;11.18;;;3.80;;
58864;SDS011;45702;52.982;6.658;2022-07-17T00:06:57;13.23;;;4.28;;
58864;SDS011;45702;52.982;6.658;2022-07-17T00:09:23;9.55;;;4.47;;
58864;SDS011;45702;52.982;6.658;2022-07-17T00:11:48;10.13;;;4.60;;
58864;SDS011;45702;52.982;6.658;2022-07-17T00:14:14;11.77;;;4.43;;
58864;SDS011;45702;52.982;6.658;2022-07-17T00:16:40;12.38;;;3.60;;
58864;SDS011;45702;52.982;6.658;2022-07-17T00:19:05;7.95;;;3.67;;
58864;SDS011;45702;52.982;6.658;2022-07-17T00:21:32;10.98;;;3.72;;
58864;SDS011;45702;52.982;6.658;2022-07-17T00:23:58;11.23;;;4.00;;
58864;SDS011;45702;52.982;6.658;2022-07-17T00:26:23;10.95;;;4.50;;
58864;SDS011;45702;52.982;6.658;2022-07-17T00:28:49;9.75;;;4.70;;
58864;SDS011;45702;52.982;6.658;2022-07-17T00:31:15;15.73;;;5.45;;
58864;SDS011;45702;52.982;6.658;2022-07-17T00:33:41;13.02;;;5.05;;
58864;SDS011;45702;52.982;6.658;2022-07-17T00:36:06;16.63;;;5.38;;
58864;SDS011;45702;52.982;6.658;2022-07-17T00:38:32;12.30;;;5.18;;
58864;SDS011;45702;52.982;6.658;2022-07-17T00:40:58;12.55;;;5.25;;
58864;SDS011;45702;52.982;6.658;2022-07-17T00:43:24;12.73;;;5.65;;
58864;SDS011;45702;52.982;6.658;2022-07-17T00:46:09;17.05;;;5.32;;
58864;SDS011;45702;52.982;6.658;2022-07-17T00:48:35;17.25;;;6.05;;
58864;SDS011;45702;52.982;6.658;2022-07-17T00:51:01;14.52;;;6.18;;
58864;SDS011;45702;52.982;6.658;2022-07-17T00:53:26;15.05;;;6.25;;
58864;SDS011;45702;52.982;6.658;2022-07-17T00:55:53;13.40;;;5.45;;
58864;SDS011;45702;52.982;6.658;2022-07-17T00:58:23;17.73;;;6.20;;
58864;SDS011;45702;52.982;6.658;2022-07-17T01:00:50;15.10;;;6.63;;
58864;SDS011;45702;52.982;6.658;2022-07-17T01:03:18;16.77;;;7.20;;
58864;SDS011;45702;52.982;6.658;2022-07-17T01:05:45;11.65;;;5.97;;
58864;SDS011;45702;52.982;6.658;2022-07-17T01:08:11;17.58;;;6.60;;
58864;SDS011;45702;52.982;6.658;2022-07-17T01:10:37;13.05;;;6.20;;
58864;SDS011;45702;52.982;6.658;2022-07-17T01:13:03;13.50;;;6.20;;
58864;SDS011;45702;52.982;6.658;2022-07-17T01:15:30;12.93;;;5.78;;
58864;SDS011;45702;52.982;6.658;2022-07-17T01:17:57;14.48;;;6.72;;
58864;SDS011;45702;52.982;6.658;2022-07-17T01:20:23;19.45;;;7.32;;
58864;SDS011;45702;52.982;6.658;2022-07-17T01:22:49;14.65;;;7.68;;
58864;SDS011;45702;52.982;6.658;2022-07-17T01:25:18;15.82;;;6.90;;
58864;SDS011;45702;52.982;6.658;2022-07-17T01:30:10;13.65;;;5.55;;
58864;SDS011;45702;52.982;6.658;2022-07-17T01:32:37;12.23;;;4.82;;
58864;SDS011;45702;52.982;6.658;2022-07-17T01:35:05;10.45;;;4.68;;
58864;SDS011;45702;52.982;6.658;2022-07-17T01:37:32;9.45;;;4.28;;
58864;SDS011;45702;52.982;6.658;2022-07-17T01:39:58;7.63;;;4.40;;
58864;SDS011;45702;52.982;6.658;2022-07-17T01:42:25;8.50;;;4.40;;
58864;SDS011;45702;52.982;6.658;2022-07-17T01:44:52;12.30;;;4.70;;
58864;SDS011;45702;52.982;6.658;2022-07-17T01:47:18;13.40;;;5.18;;
58864;SDS011;45702;52.982;6.658;2022-07-17T01:49:45;14.02;;;4.75;;
58864;SDS011;45702;52.982;6.658;2022-07-17T01:52:12;13.05;;;4.65;;
58864;SDS011;45702;52.982;6.658;2022-07-17T01:54:38;13.75;;;5.20;;
58864;SDS011;45702;52.982;6.658;2022-07-17T01:57:05;12.00;;;5.10;;
58864;SDS011;45702;52.982;6.658;2022-07-17T01:59:31;9.13;;;5.43;;
58864;SDS011;45702;52.982;6.658;2022-07-17T02:01:57;13.10;;;5.25;;
58864;SDS011;45702;52.982;6.658;2022-07-17T02:04:22;14.38;;;5.70;;
58864;SDS011;45702;52.982;6.658;2022-07-17T02:06:48;14.30;;;5.90;;
58864;SDS011;45702;52.982;6.658;2022-07-17T02:09:14;14.23;;;6.85;;
58864;SDS011;45702;52.982;6.658;2022-07-17T02:11:39;13.07;;;6.30;;
58864;SDS011;45702;52.982;6.658;2022-07-17T02:14:05;13.65;;;6.88;;
58864;SDS011;45702;52.982;6.658;2022-07-17T02:16:31;13.52;;;6.97;;
58864;SDS011;45702;52.982;6.658;2022-07-17T02:18:56;13.73;;;6.63;;
58864;SDS011;45702;52.982;6.658;2022-07-17T02:21:22;12.63;;;6.20;;
58864;SDS011;45702;52.982;6.658;2022-07-17T02:23:47;13.77;;;5.78;;
58864;SDS011;45702;52.982;6.658;2022-07-17T02:26:13;12.90;;;6.32;;
58864;SDS011;45702;52.982;6.658;2022-07-17T02:28:39;12.75;;;5.70;;
58864;SDS011;45702;52.982;6.658;2022-07-17T02:31:04;11.60;;;5.47;;
58864;SDS011;45702;52.982;6.658;2022-07-17T02:33:30;18.75;;;5.60;;
58864;SDS011;45702;52.982;6.658;2022-07-17T02:35:56;13.00;;;6.03;;
58864;SDS011;45702;52.982;6.658;2022-07-17T02:38:21;12.13;;;5.57;;
58864;SDS011;45702;52.982;6.658;2022-07-17T02:40:47;13.07;;;5.25;;
58864;SDS011;45702;52.982;6.658;2022-07-17T02:43:13;13.73;;;5.88;;
58864;SDS011;45702;52.982;6.658;2022-07-17T02:45:38;11.68;;;5.43;;
58864;SDS011;45702;52.982;6.658;2022-07-17T02:48:04;11.35;;;6.00;;
58864;SDS011;45702;52.982;6.658;2022-07-17T02:50:30;14.20;;;5.45;;
58864;SDS011;45702;52.982;6.658;2022-07-17T02:52:55;13.77;;;6.22;;
58864;SDS011;45702;52.982;6.658;2022-07-17T02:55:21;16.63;;;6.30;;
58864;SDS011;45702;52.982;6.658;2022-07-17T02:57:47;10.80;;;5.82;;
58864;SDS011;45702;52.982;6.658;2022-07-17T03:00:14;16.40;;;5.63;;
58864;SDS011;45702;52.982;6.658;2022-07-17T03:02:44;12.93;;;5.30;;
58864;SDS011;45702;52.982;6.658;2022-07-17T03:05:11;11.40;;;5.43;;
58864;SDS011;45702;52.982;6.658;2022-07-17T03:07:38;12.23;;;5.10;;
58864;SDS011;45702;52.982;6.658;2022-07-17T03:10:05;10.27;;;4.97;;
58864;SDS011;45702;52.982;6.658;2022-07-17T03:12:31;10.55;;;5.07;;
58864;SDS011;45702;52.982;6.658;2022-07-17T03:14:57;13.02;;;5.10;;
58864;SDS011;45702;52.982;6.658;2022-07-17T03:17:23;10.35;;;5.10;;
58864;SDS011;45702;52.982;6.658;2022-07-17T03:19:48;13.93;;;4.97;;
58864;SDS011;45702;52.982;6.658;2022-07-17T03:22:14;11.80;;;5.55;;
58864;SDS011;45702;52.982;6.658;2022-07-17T03:24:41;13.30;;;5.18;;
58864;SDS011;45702;52.982;6.658;2022-07-17T03:27:06;9.43;;;5.47;;
58864;SDS011;45702;52.982;6.658;2022-07-17T03:29:32;10.45;;;5.10;;
58864;SDS011;45702;52.982;6.658;2022-07-17T03:31:58;10.15;;;5.30;;
58864;SDS011;45702;52.982;6.658;2022-07-17T03:34:24;12.25;;;4.90;;
58864;SDS011;45702;52.982;6.658;2022-07-17T03:36:50;8.95;;;4.90;;
58864;SDS011;45702;52.982;6.658;2022-07-17T03:39:15;12.90;;;4.88;;
58864;SDS011;45702;52.982;6.658;2022-07-17T03:41:41;15.35;;;5.25;;
58864;SDS011;45702;52.982;6.658;2022-07-17T03:44:07;12.40;;;4.82;;
58864;SDS011;45702;52.982;6.658;2022-07-17T03:46:33;10.07;;;5.25;;
58864;SDS011;45702;52.982;6.658;2022-07-17T03:48:58;10.13;;;4.80;;
58864;SDS011;45702;52.982;6.658;2022-07-17T03:51:24;10.30;;;4.22;;
58864;SDS011;45702;52.982;6.658;2022-07-17T03:53:50;10.95;;;4.95;;
58864;SDS011;45702;52.982;6.658;2022-07-17T03:56:16;8.75;;;4.53;;
58864;SDS011;45702;52.982;6.658;2022-07-17T03:58:41;11.82;;;4.70;;
58864;SDS011;45702;52.982;6.658;2022-07-17T04:01:07;10.25;;;4.10;;
58864;SDS011;45702;52.982;6.658;2022-07-17T04:03:33;8.93;;;4.20;;
58864;SDS011;45702;52.982;6.658;2022-07-17T04:05:59;11.48;;;4.25;;
58864;SDS011;45702;52.982;6.658;2022-07-17T04:08:24;7.70;;;4.05;;
58864;SDS011;45702;52.982;6.658;2022-07-17T04:10:50;9.27;;;4.05;;
58864;SDS011;45702;52.982;6.658;2022-07-17T04:13:16;7.75;;;4.45;;
58864;SDS011;45702;52.982;6.658;2022-07-17T04:15:41;10.45;;;4.53;;
58864;SDS011;45702;52.982;6.658;2022-07-17T04:18:23;12.07;;;5.20;;
58864;SDS011;45702;52.982;6.658;2022-07-17T04:20:50;9.50;;;4.70;;
58864;SDS011;45702;52.982;6.658;2022-07-17T04:23:17;9.65;;;4.60;;
58864;SDS011;45702;52.982;6.658;2022-07-17T04:25:43;9.27;;;4.70;;
58864;SDS011;45702;52.982;6.658;2022-07-17T04:28:09;12.25;;;4.72;;
58864;SDS011;45702;52.982;6.658;2022-07-17T04:30:36;9.77;;;5.40;;
58864;SDS011;45702;52.982;6.658;2022-07-17T04:33:02;11.73;;;5.25;;
58864;SDS011;45702;52.982;6.658;2022-07-17T04:35:28;16.13;;;6.05;;
58864;SDS011;45702;52.982;6.658;2022-07-17T04:37:53;17.70;;;6.13;;
58864;SDS011;45702;52.982;6.658;2022-07-17T04:40:19;12.98;;;5.57;;
58864;SDS011;45702;52.982;6.658;2022-07-17T04:42:45;15.15;;;5.88;;
58864;SDS011;45702;52.982;6.658;2022-07-17T04:45:11;9.93;;;5.63;;
58864;SDS011;45702;52.982;6.658;2022-07-17T04:47:38;16.05;;;6.03;;
58864;SDS011;45702;52.982;6.658;2022-07-17T04:50:04;12.73;;;5.75;;
58864;SDS011;45702;52.982;6.658;2022-07-17T04:52:30;13.77;;;5.55;;
58864;SDS011;45702;52.982;6.658;2022-07-17T04:54:56;10.82;;;5.15;;
58864;SDS011;45702;52.982;6.658;2022-07-17T04:57:21;12.27;;;5.60;;
58864;SDS011;45702;52.982;6.658;2022-07-17T04:59:47;14.93;;;5.78;;
58864;SDS011;45702;52.982;6.658;2022-07-17T05:02:12;11.05;;;4.90;;
58864;SDS011;45702;52.982;6.658;2022-07-17T05:04:38;13.30;;;5.20;;
58864;SDS011;45702;52.982;6.658;2022-07-17T05:07:04;13.15;;;6.10;;
58864;SDS011;45702;52.982;6.658;2022-07-17T05:09:29;14.10;;;5.07;;
58864;SDS011;45702;52.982;6.658;2022-07-17T05:11:55;18.85;;;5.55;;
58864;SDS011;45702;52.982;6.658;2022-07-17T05:14:21;10.30;;;4.70;;
58864;SDS011;45702;52.982;6.658;2022-07-17T05:16:46;11.10;;;5.47;;
58864;SDS011;45702;52.982;6.658;2022-07-17T05:19:12;15.32;;;5.72;;
58864;SDS011;45702;52.982;6.658;2022-07-17T05:21:38;10.98;;;5.18;;
58864;SDS011;45702;52.982;6.658;2022-07-17T05:24:04;13.75;;;5.10;;
58864;SDS011;45702;52.982;6.658;2022-07-17T05:26:29;15.80;;;4.90;;
58864;SDS011;45702;52.982;6.658;2022-07-17T05:28:55;15.25;;;5.28;;
58864;SDS011;45702;52.982;6.658;2022-07-17T05:31:21;14.13;;;4.85;;
58864;SDS011;45702;52.982;6.658;2022-07-17T05:33:47;12.77;;;4.72;;
58864;SDS011;45702;52.982;6.658;2022-07-17T05:36:12;12.63;;;4.68;;
58864;SDS011;45702;52.982;6.658;2022-07-17T05:38:38;8.80;;;4.47;;
58864;SDS011;45702;52.982;6.658;2022-07-17T05:41:04;10.52;;;4.80;;
58864;SDS011;45702;52.982;6.658;2022-07-17T05:43:30;12.18;;;4.38;;
58864;SDS011;45702;52.982;6.658;2022-07-17T05:45:58;11.20;;;4.18;;
58864;SDS011;45702;52.982;6.658;2022-07-17T05:48:24;12.65;;;4.43;;
58864;SDS011;45702;52.982;6.658;2022-07-17T05:50:51;12.07;;;4.85;;
58864;SDS011;45702;52.982;6.658;2022-07-17T05:53:17;11.98;;;4.55;;
58864;SDS011;45702;52.982;6.658;2022-07-17T05:55:43;12.20;;;4.15;;
58864;SDS011;45702;52.982;6.658;2022-07-17T05:58:09;13.35;;;4.15;;
58864;SDS011;45702;52.982;6.658;2022-07-17T06:00:35;13.90;;;4.22;;
58864;SDS011;45702;52.982;6.658;2022-07-17T06:03:02;7.15;;;3.95;;
58864;SDS011;45702;52.982;6.658;2022-07-17T06:05:28;14.27;;;3.85;;
58864;SDS011;45702;52.982;6.658;2022-07-17T06:07:54;7.22;;;3.72;;
58864;SDS011;45702;52.982;6.658;2022-07-17T06:10:21;8.85;;;3.85;;
58864;SDS011;45702;52.982;6.658;2022-07-17T06:12:47;10.35;;;3.83;;
58864;SDS011;45702;52.982;6.658;2022-07-17T06:15:14;12.75;;;4.38;;
58864;SDS011;45702;52.982;6.658;2022-07-17T06:17:40;9.00;;;3.65;;
58864;SDS011;45702;52.982;6.658;2022-07-17T06:20:06;6.63;;;3.15;;
58864;SDS011;45702;52.982;6.658;2022-07-17T06:22:32;8.85;;;3.17;;
58864;SDS011;45702;52.982;6.658;2022-07-17T06:24:57;10.07;;;2.80;;
58864;SDS011;45702;52.982;6.658;2022-07-17T06:27:23;8.00;;;2.70;;
58864;SDS011;45702;52.982;6.658;2022-07-17T06:29:49;12.13;;;3.10;;
58864;SDS011;45702;52.982;6.658;2022-07-17T06:32:15;8.20;;;2.45;;
58864;SDS011;45702;52.982;6.658;2022-07-17T06:34:41;10.30;;;2.67;;
58864;SDS011;45702;52.982;6.658;2022-07-17T06:37:07;12.43;;;2.70;;
58864;SDS011;45702;52.982;6.658;2022-07-17T06:39:33;9.45;;;2.70;;
58864;SDS011;45702;52.982;6.658;2022-07-17T06:41:59;8.05;;;2.75;;
58864;SDS011;45702;52.982;6.658;2022-07-17T06:44:25;6.95;;;2.08;;
58864;SDS011;45702;52.982;6.658;2022-07-17T06:46:50;10.18;;;2.40;;
58864;SDS011;45702;52.982;6.658;2022-07-17T06:49:16;10.88;;;2.42;;
58864;SDS011;45702;52.982;6.658;2022-07-17T06:51:42;7.10;;;2.78;;
58864;SDS011;45702;52.982;6.658;2022-07-17T06:54:11;10.40;;;2.50;;
58864;SDS011;45702;52.982;6.658;2022-07-17T06:56:37;8.68;;;2.53;;
58864;SDS011;45702;52.982;6.658;2022-07-17T06:59:03;11.98;;;2.50;;
58864;SDS011;45702;52.982;6.658;2022-07-17T07:04:01;9.75;;;2.30;;
58864;SDS011;45702;52.982;6.658;2022-07-17T07:06:28;9.30;;;2.00;;
58864;SDS011;45702;52.982;6.658;2022-07-17T07:08:54;9.55;;;2.13;;
58864;SDS011;45702;52.982;6.658;2022-07-17T07:11:20;12.98;;;2.13;;
58864;SDS011;45702;52.982;6.658;2022-07-17T07:13:46;7.13;;;2.10;;
58864;SDS011;45702;52.982;6.658;2022-07-17T07:16:11;12.05;;;2.22;;
58864;SDS011;45702;52.982;6.658;2022-07-17T07:18:37;5.53;;;1.75;;
58864;SDS011;45702;52.982;6.658;2022-07-17T07:21:03;7.00;;;1.92;;
58864;SDS011;45702;52.982;6.658;2022-07-17T07:23:28;9.32;;;2.10;;
58864;SDS011;45702;52.982;6.658;2022-07-17T07:25:54;7.57;;;2.15;;
58864;SDS011;45702;52.982;6.658;2022-07-17T07:28:20;9.88;;;2.40;;
58864;SDS011;45702;52.982;6.658;2022-07-17T07:30:46;14.57;;;2.28;;
58864;SDS011;45702;52.982;6.658;2022-07-17T07:33:11;7.97;;;2.45;;
58864;SDS011;45702;52.982;6.658;2022-07-17T07:35:37;6.88;;;2.03;;
58864;SDS011;45702;52.982;6.658;2022-07-17T07:38:03;9.88;;;2.30;;
58864;SDS011;45702;52.982;6.658;2022-07-17T07:40:29;10.25;;;2.03;;
58864;SDS011;45702;52.982;6.658;2022-07-17T07:42:56;11.02;;;2.25;;
58864;SDS011;45702;52.982;6.658;2022-07-17T07:45:22;6.13;;;1.75;;
58864;SDS011;45702;52.982;6.658;2022-07-17T07:47:49;7.22;;;1.40;;
58864;SDS011;45702;52.982;6.658;2022-07-17T07:50:16;7.30;;;1.80;;
58864;SDS011;45702;52.982;6.658;2022-07-17T07:52:42;6.30;;;1.65;;
58864;SDS011;45702;52.982;6.658;2022-07-17T07:55:09;9.80;;;2.00;;
58864;SDS011;45702;52.982;6.658;2022-07-17T07:57:36;8.18;;;1.77;;
58864;SDS011;45702;52.982;6.658;2022-07-17T08:00:02;8.65;;;2.03;;
58864;SDS011;45702;52.982;6.658;2022-07-17T08:02:29;7.40;;;1.90;;
58864;SDS011;45702;52.982;6.658;2022-07-17T08:04:55;8.63;;;1.92;;
58864;SDS011;45702;52.982;6.658;2022-07-17T08:07:21;9.38;;;2.30;;
58864;SDS011;45702;52.982;6.658;2022-07-17T08:09:46;6.35;;;2.05;;
58864;SDS011;45702;52.982;6.658;2022-07-17T08:12:13;6.32;;;1.75;;
58864;SDS011;45702;52.982;6.658;2022-07-17T08:14:42;7.10;;;2.20;;
58864;SDS011;45702;52.982;6.658;2022-07-17T08:17:08;5.65;;;1.75;;
58864;SDS011;45702;52.982;6.658;2022-07-17T08:19:33;7.38;;;1.80;;
58864;SDS011;45702;52.982;6.658;2022-07-17T08:21:59;8.32;;;1.95;;
58864;SDS011;45702;52.982;6.658;2022-07-17T08:24:25;9.88;;;2.42;;
58864;SDS011;45702;52.982;6.658;2022-07-17T08:26:51;8.55;;;1.70;;
58864;SDS011;45702;52.982;6.658;2022-07-17T08:29:17;6.28;;;1.95;;
58864;SDS011;45702;52.982;6.658;2022-07-17T08:31:43;9.57;;;1.98;;
58864;SDS011;45702;52.982;6.658;2022-07-17T08:34:08;8.13;;;2.10;;
58864;SDS011;45702;52.982;6.658;2022-07-17T08:36:34;9.45;;;2.42;;
58864;SDS011;45702;52.982;6.658;2022-07-17T08:39:00;9.60;;;1.80;;
58864;SDS011;45702;52.982;6.658;2022-07-17T08:41:27;7.93;;;2.00;;
58864;SDS011;45702;52.982;6.658;2022-07-17T08:43:54;9.55;;;1.90;;
58864;SDS011;45702;52.982;6.658;2022-07-17T08:46:22;12.73;;;1.98;;
58864;SDS011;45702;52.982;6.658;2022-07-17T08:48:49;7.93;;;2.08;;
58864;SDS011;45702;52.982;6.658;2022-07-17T08:51:21;8.65;;;1.92;;
58864;SDS011;45702;52.982;6.658;2022-07-17T08:53:47;5.18;;;1.60;;
58864;SDS011;45702;52.982;6.658;2022-07-17T08:56:13;6.63;;;1.92;;
58864;SDS011;45702;52.982;6.658;2022-07-17T08:58:38;6.30;;;1.90;;
58864;SDS011;45702;52.982;6.658;2022-07-17T09:01:04;9.43;;;1.80;;
58864;SDS011;45702;52.982;6.658;2022-07-17T09:03:30;6.85;;;1.73;;
58864;SDS011;45702;52.982;6.658;2022-07-17T09:05:56;7.78;;;2.10;;
58864;SDS011;45702;52.982;6.658;2022-07-17T09:08:22;7.72;;;2.00;;
58864;SDS011;45702;52.982;6.658;2022-07-17T09:10:50;9.05;;;1.85;;
58864;SDS011;45702;52.982;6.658;2022-07-17T09:15:57;8.95;;;2.17;;
58864;SDS011;45702;52.982;6.658;2022-07-17T09:18:24;7.63;;;1.80;;
58864;SDS011;45702;52.982;6.658;2022-07-17T09:20:51;7.72;;;1.90;;
58864;SDS011;45702;52.982;6.658;2022-07-17T09:23:22;6.40;;;2.00;;
58864;SDS011;45702;52.982;6.658;2022-07-17T09:25:50;6.07;;;1.83;;
58864;SDS011;45702;52.982;6.658;2022-07-17T09:28:21;7.75;;;1.73;;
58864;SDS011;45702;52.982;6.658;2022-07-17T09:30:48;8.93;;;2.03;;
58864;SDS011;45702;52.982;6.658;2022-07-17T09:33:17;10.98;;;1.67;;
58864;SDS011;45702;52.982;6.658;2022-07-17T09:35:50;3.95;;;1.65;;
58864;SDS011;45702;52.982;6.658;2022-07-17T09:38:32;8.50;;;1.85;;
58864;SDS011;45702;52.982;6.658;2022-07-17T09:41:33;5.03;;;2.00;;
58864;SDS011;45702;52.982;6.658;2022-07-17T09:43:56;8.13;;;1.90;;
58864;SDS011;45702;52.982;6.658;2022-07-17T09:46:28;8.80;;;1.88;;
58864;SDS011;45702;52.982;6.658;2022-07-17T09:48:56;10.10;;;2.03;;
58864;SDS011;45702;52.982;6.658;2022-07-17T09:51:26;6.00;;;2.22;;
58864;SDS011;45702;52.982;6.658;2022-07-17T09:53:57;7.03;;;1.90;;
58864;SDS011;45702;52.982;6.658;2022-07-17T09:56:25;6.38;;;1.70;;
58864;SDS011;45702;52.982;6.658;2022-07-17T09:58:54;5.95;;;1.80;;
58864;SDS011;45702;52.982;6.658;2022-07-17T10:01:37;6.88;;;1.70;;
58864;SDS011;45702;52.982;6.658;2022-07-17T10:06:30;9.15;;;1.95;;
58864;SDS011;45702;52.982;6.658;2022-07-17T10:08:56;8.65;;;1.85;;
58864;SDS011;45702;52.982;6.658;2022-07-17T10:11:23;6.47;;;1.83;;
58864;SDS011;45702;52.982;6.658;2022-07-17T10:13:52;5.28;;;2.05;;
58864;SDS011;45702;52.982;6.658;2022-07-17T10:16:25;5.15;;;1.63;;
58864;SDS011;45702;52.982;6.658;2022-07-17T10:18:52;6.45;;;1.77;;
58864;SDS011;45702;52.982;6.658;2022-07-17T10:21:21;7.13;;;1.98;;
58864;SDS011;45702;52.982;6.658;2022-07-17T10:23:48;5.80;;;1.92;;
58864;SDS011;45702;52.982;6.658;2022-07-17T10:29:25;5.50;;;2.10;;
58864;SDS011;45702;52.982;6.658;2022-07-17T10:31:51;11.43;;;1.80;;
58864;SDS011;45702;52.982;6.658;2022-07-17T10:34:17;7.40;;;1.90;;
58864;SDS011;45702;52.982;6.658;2022-07-17T10:36:43;5.35;;;1.95;;
58864;SDS011;45702;52.982;6.658;2022-07-17T10:39:13;8.75;;;2.08;;
58864;SDS011;45702;52.982;6.658;2022-07-17T10:41:39;6.07;;;1.88;;
58864;SDS011;45702;52.982;6.658;2022-07-17T10:44:06;6.10;;;1.90;;
58864;SDS011;45702;52.982;6.658;2022-07-17T10:46:31;4.10;;;1.80;;
58864;SDS011;45702;52.982;6.658;2022-07-17T10:48:57;6.57;;;1.95;;
58864;SDS011;45702;52.982;6.658;2022-07-17T10:51:26;4.75;;;1.90;;
58864;SDS011;45702;52.982;6.658;2022-07-17T10:53:57;8.98;;;2.10;;
58864;SDS011;45702;52.982;6.658;2022-07-17T10:56:24;7.55;;;2.80;;
58864;SDS011;45702;52.982;6.658;2022-07-17T10:58:51;8.68;;;2.30;;
58864;SDS011;45702;52.982;6.658;2022-07-17T11:01:18;5.43;;;2.10;;
58864;SDS011;45702;52.982;6.658;2022-07-17T11:03:49;6.80;;;2.10;;
58864;SDS011;45702;52.982;6.658;2022-07-17T11:06:17;8.45;;;1.88;;
58864;SDS011;45702;52.982;6.658;2022-07-17T11:08:47;5.57;;;2.00;;
58864;SDS011;45702;52.982;6.658;2022-07-17T11:11:20;5.32;;;2.00;;
58864;SDS011;45702;52.982;6.658;2022-07-17T11:13:47;4.53;;;1.67;;
58864;SDS011;45702;52.982;6.658;2022-07-17T11:16:26;6.13;;;1.90;;
58864;SDS011;45702;52.982;6.658;2022-07-17T11:18:54;9.23;;;2.00;;
58864;SDS011;45702;52.982;6.658;2022-07-17T11:21:20;3.47;;;1.88;;
58864;SDS011;45702;52.982;6.658;2022-07-17T11:23:51;5.80;;;2.05;;
58864;SDS011;45702;52.982;6.658;2022-07-17T11:26:17;4.63;;;2.20;;
58864;SDS011;45702;52.982;6.658;2022-07-17T11:28:45;4.63;;;2.00;;
58864;SDS011;45702;52.982;6.658;2022-07-17T11:31:16;5.03;;;1.90;;
58864;SDS011;45702;52.982;6.658;2022-07-17T11:33:48;8.00;;;2.20;;
58864;SDS011;45702;52.982;6.658;2022-07-17T11:39:23;6.35;;;1.95;;
58864;SDS011;45702;52.982;6.658;2022-07-17T11:41:50;4.85;;;2.00;;
58864;SDS011;45702;52.982;6.658;2022-07-17T11:44:21;5.75;;;2.13;;
58864;SDS011;45702;52.982;6.658;2022-07-17T11:46:49;5.85;;;1.80;;
58864;SDS011;45702;52.982;6.658;2022-07-17T11:49:25;2.97;;;1.85;;
58864;SDS011;45702;52.982;6.658;2022-07-17T11:51:54;4.13;;;2.10;;
58864;SDS011;45702;52.982;6.658;2022-07-17T11:54:21;5.85;;;2.08;;
58864;SDS011;45702;52.982;6.658;2022-07-17T11:56:56;4.63;;;1.63;;
58864;SDS011;45702;52.982;6.658;2022-07-17T11:59:31;4.85;;;2.05;;
58864;SDS011;45702;52.982;6.658;2022-07-17T12:02:06;5.13;;;2.00;;
58864;SDS011;45702;52.982;6.658;2022-07-17T12:04:33;6.90;;;2.10;;
58864;SDS011;45702;52.982;6.658;2022-07-17T12:06:59;5.57;;;2.10;;
58864;SDS011;45702;52.982;6.658;2022-07-17T12:09:26;8.65;;;2.20;;
58864;SDS011;45702;52.982;6.658;2022-07-17T12:11:53;4.88;;;1.98;;
58864;SDS011;45702;52.982;6.658;2022-07-17T12:14:19;5.85;;;1.83;;
58864;SDS011;45702;52.982;6.658;2022-07-17T12:16:45;4.45;;;2.10;;
58864;SDS011;45702;52.982;6.658;2022-07-17T12:19:19;6.50;;;2.00;;
58864;SDS011;45702;52.982;6.658;2022-07-17T12:26:47;8.63;;;2.10;;
58864;SDS011;45702;52.982;6.658;2022-07-17T12:29:13;6.57;;;1.90;;
58864;SDS011;45702;52.982;6.658;2022-07-17T12:31:39;7.53;;;2.33;;
58864;SDS011;45702;52.982;6.658;2022-07-17T12:34:04;5.07;;;2.20;;
58864;SDS011;45702;52.982;6.658;2022-07-17T12:36:30;6.93;;;2.45;;
58864;SDS011;45702;52.982;6.658;2022-07-17T12:38:56;6.72;;;2.20;;
58864;SDS011;45702;52.982;6.658;2022-07-17T12:41:21;4.32;;;2.00;;
58864;SDS011;45702;52.982;6.658;2022-07-17T12:43:47;4.55;;;2.00;;
58864;SDS011;45702;52.982;6.658;2022-07-17T12:46:13;5.82;;;1.98;;
58864;SDS011;45702;52.982;6.658;2022-07-17T12:48:39;5.82;;;2.45;;
58864;SDS011;45702;52.982;6.658;2022-07-17T12:51:06;5.93;;;2.58;;
58864;SDS011;45702;52.982;6.658;2022-07-17T12:53:33;7.50;;;2.70;;
58864;SDS011;45702;52.982;6.658;2022-07-17T12:56:00;5.28;;;2.72;;
58864;SDS011;45702;52.982;6.658;2022-07-17T13:01:08;5.25;;;2.83;;
58864;SDS011;45702;52.982;6.658;2022-07-17T13:03:34;4.82;;;2.90;;
58864;SDS011;45702;52.982;6.658;2022-07-17T13:06:01;6.72;;;2.70;;
58864;SDS011;45702;52.982;6.658;2022-07-17T13:08:27;7.43;;;3.42;;
58864;SDS011;45702;52.982;6.658;2022-07-17T13:10:54;5.40;;;3.03;;
58864;SDS011;45702;52.982;6.658;2022-07-17T13:13:20;5.75;;;3.10;;
58864;SDS011;45702;52.982;6.658;2022-07-17T13:15:45;4.35;;;2.67;;
58864;SDS011;45702;52.982;6.658;2022-07-17T13:18:11;7.65;;;3.05;;
58864;SDS011;45702;52.982;6.658;2022-07-17T13:20:37;7.78;;;3.35;;
58864;SDS011;45702;52.982;6.658;2022-07-17T13:23:04;9.95;;;3.58;;
58864;SDS011;45702;52.982;6.658;2022-07-17T13:25:30;6.07;;;3.13;;
58864;SDS011;45702;52.982;6.658;2022-07-17T13:27:56;7.10;;;3.55;;
58864;SDS011;45702;52.982;6.658;2022-07-17T13:30:22;10.32;;;3.70;;
58864;SDS011;45702;52.982;6.658;2022-07-17T13:32:47;7.18;;;3.30;;
58864;SDS011;45702;52.982;6.658;2022-07-17T13:35:13;10.18;;;3.45;;
58864;SDS011;45702;52.982;6.658;2022-07-17T13:37:39;6.90;;;3.38;;
58864;SDS011;45702;52.982;6.658;2022-07-17T13:40:05;8.73;;;3.58;;
58864;SDS011;45702;52.982;6.658;2022-07-17T13:42:31;5.80;;;3.20;;
58864;SDS011;45702;52.982;6.658;2022-07-17T13:44:57;8.25;;;3.40;;
58864;SDS011;45702;52.982;6.658;2022-07-17T13:47:23;5.53;;;3.90;;
58864;SDS011;45702;52.982;6.658;2022-07-17T13:49:48;8.10;;;3.30;;
58864;SDS011;45702;52.982;6.658;2022-07-17T13:52:14;7.85;;;3.50;;
58864;SDS011;45702;52.982;6.658;2022-07-17T13:54:40;6.60;;;3.40;;
58864;SDS011;45702;52.982;6.658;2022-07-17T13:57:06;7.03;;;3.45;;
58864;SDS011;45702;52.982;6.658;2022-07-17T13:59:31;8.18;;;3.28;;
58864;SDS011;45702;52.982;6.658;2022-07-17T14:01:57;8.65;;;3.50;;
58864;SDS011;45702;52.982;6.658;2022-07-17T14:04:23;8.90;;;3.70;;
58864;SDS011;45702;52.982;6.658;2022-07-17T14:06:48;8.27;;;3.28;;
58864;SDS011;45702;52.982;6.658;2022-07-17T14:09:14;6.97;;;4.00;;
58864;SDS011;45702;52.982;6.658;2022-07-17T14:11:40;7.93;;;3.40;;
58864;SDS011;45702;52.982;6.658;2022-07-17T14:14:05;6.82;;;3.70;;
58864;SDS011;45702;52.982;6.658;2022-07-17T14:16:31;6.75;;;3.65;;
58864;SDS011;45702;52.982;6.658;2022-07-17T14:18:57;7.53;;;4.10;;
58864;SDS011;45702;52.982;6.658;2022-07-17T14:21:30;9.77;;;4.22;;
58864;SDS011;45702;52.982;6.658;2022-07-17T14:23:57;7.28;;;4.20;;
58864;SDS011;45702;52.982;6.658;2022-07-17T14:26:23;10.18;;;4.63;;
58864;SDS011;45702;52.982;6.658;2022-07-17T14:28:49;8.57;;;4.13;;
58864;SDS011;45702;52.982;6.658;2022-07-17T14:31:15;7.15;;;4.18;;
58864;SDS011;45702;52.982;6.658;2022-07-17T14:33:41;9.02;;;4.20;;
58864;SDS011;45702;52.982;6.658;2022-07-17T14:36:08;8.40;;;4.40;;
58864;SDS011;45702;52.982;6.658;2022-07-17T14:38:35;10.27;;;4.65;;
58864;SDS011;45702;52.982;6.658;2022-07-17T14:41:01;8.88;;;4.28;;
58864;SDS011;45702;52.982;6.658;2022-07-17T14:43:27;13.48;;;4.68;;
58864;SDS011;45702;52.982;6.658;2022-07-17T14:45:53;9.00;;;4.60;;
58864;SDS011;45702;52.982;6.658;2022-07-17T14:48:19;8.98;;;4.20;;
58864;SDS011;45702;52.982;6.658;2022-07-17T14:50:44;8.88;;;4.55;;
58864;SDS011;45702;52.982;6.658;2022-07-17T14:53:10;9.02;;;4.32;;
58864;SDS011;45702;52.982;6.658;2022-07-17T14:55:36;8.40;;;4.35;;
58864;SDS011;45702;52.982;6.658;2022-07-17T14:58:01;9.90;;;4.80;;
58864;SDS011;45702;52.982;6.658;2022-07-17T15:00:27;7.22;;;4.15;;
58864;SDS011;45702;52.982;6.658;2022-07-17T15:02:53;7.90;;;4.03;;
58864;SDS011;45702;52.982;6.658;2022-07-17T15:05:18;8.63;;;4.75;;